Time;durP1;ratioP1;P1;durP2;ratioP2;P2;SDS_P1;SDS_P2;PMS_P1;PMS_P2;Temp;Humidity;BMP_temperature;BMP_pressure;BME280_temperature;BME280_humidity;BME280_pressure;Samples;Min_cycle;Max_cycle;Signal;HPM_P1;HPM_P2
2022/07/18 00:00:38;;;;;;;2.40;1.80;;;;;;;11.31;76.94;101313.92;84762;1326;22588;-70
2022/07/18 00:02:50;;;;;;;5.10;1.90;;;;;;;11.29;76.96;101314.16;84774;1326;25342;-71
2022/07/18 00:04:59;;;;;;;4.80;1.90;;;;;;;11.27;76.86;101314.21;84765;1326;23056;-71
2022/07/18 00:07:07;;;;;;;2.00;1.50;;;;;;;11.26;76.93;101313.38;84771;1323;22823;-71
2022/07/18 00:09:16;;;;;;;2.90;2.40;;;;;;;11.23;77.05;101312.41;84792;1327;22610;-71
2022/07/18 00:11:27;;;;;;;3.10;2.10;;;;;;;11.20;77.11;101317.02;84754;1325;22599;-70
2022/07/18 00:13:36;;;;;;;4.50;2.40;;;;;;;11.18;77.33;101316.02;84753;1326;22634;-70
2022/07/18 00:15:47;;;;;;;5.10;2.10;;;;;;;11.15;77.33;101314.19;84752;1326;22677;-71
2022/07/18 00:17:56;;;;;;;4.80;2.10;;;;;;;11.13;77.36;101318.25;84769;1326;24371;-69
2022/07/18 00:20:08;;;;;;;4.60;1.90;;;;;;;11.09;77.43;101310.46;84763;1323;22595;-70
2022/07/18 00:22:20;;;;;;;6.00;2.50;;;;;;;11.06;77.62;101315.63;84780;1326;22609;-70
2022/07/18 00:24:32;;;;;;;4.50;2.50;;;;;;;11.04;77.58;101322.31;84792;1327;24139;-70
2022/07/18 00:26:42;;;;;;;3.60;1.80;;;;;;;11.02;77.54;101320.11;84774;1326;24234;-70
2022/07/18 00:28:51;;;;;;;2.60;2.40;;;;;;;10.99;77.64;101320.16;84753;1325;22958;-70
2022/07/18 00:31:00;;;;;;;3.40;2.10;;;;;;;10.97;77.87;101318.64;84736;1326;26503;-71
2022/07/18 00:33:08;;;;;;;3.80;2.20;;;;;;;10.95;77.93;101321.65;84743;1326;22800;-71
2022/07/18 00:35:19;;;;;;;4.10;2.20;;;;;;;10.95;77.94;101319.58;84762;1326;22630;-71
2022/07/18 00:37:27;;;;;;;4.50;2.20;;;;;;;10.95;78.08;101316.60;84779;1326;25439;-71
2022/07/18 00:39:36;;;;;;;7.50;2.40;;;;;;;10.93;78.00;101318.04;84713;1326;26484;-69
2022/07/18 00:41:49;;;;;;;3.60;2.30;;;;;;;10.91;78.18;101313.92;84656;1330;22589;-70
2022/07/18 00:43:58;;;;;;;4.90;2.90;;;;;;;10.89;78.31;101316.23;84755;1324;22754;-71
2022/07/18 00:46:07;;;;;;;2.60;2.30;;;;;;;10.87;78.28;101315.22;84763;1322;22608;-71
2022/07/18 00:48:17;;;;;;;8.90;2.80;;;;;;;10.85;78.23;101318.40;84734;1323;22725;-71
2022/07/18 00:50:26;;;;;;;2.80;1.80;;;;;;;10.82;78.45;101318.64;84736;1326;22707;-70
2022/07/18 00:52:36;;;;;;;4.80;2.20;;;;;;;10.81;78.45;101317.29;84764;1327;24186;-70
2022/07/18 00:54:45;;;;;;;4.50;2.40;;;;;;;10.79;78.74;101317.67;84768;1326;24281;-71
2022/07/18 00:56:54;;;;;;;7.80;3.00;;;;;;;10.76;78.58;101319.14;84761;1326;24122;-72
2022/07/18 00:59:02;;;;;;;6.60;2.20;;;;;;;10.73;78.77;101315.39;84764;1326;22635;-71
2022/07/18 01:03:38;;;;;;;3.60;2.00;;;;;;;10.71;79.00;101318.92;84790;1326;22781;-70
2022/07/18 01:05:47;;;;;;;4.30;3.10;;;;;;;10.70;79.02;101320.33;84742;1326;25438;-71
2022/07/18 01:07:56;;;;;;;2.70;2.20;;;;;;;10.71;79.19;101318.92;84772;1326;22681;-72
2022/07/18 01:10:05;;;;;;;4.60;2.40;;;;;;;10.71;79.30;101320.31;84784;1326;24311;-72
2022/07/18 01:12:14;;;;;;;6.30;2.80;;;;;;;10.72;79.36;101319.94;84696;1328;25435;-69
2022/07/18 01:14:23;;;;;;;7.30;3.10;;;;;;;10.72;79.44;101319.95;84697;1329;22674;-71
2022/07/18 01:16:32;;;;;;;5.20;2.80;;;;;;;10.72;79.47;101322.73;84769;1329;22646;-70
2022/07/18 01:18:40;;;;;;;4.80;2.70;;;;;;;10.72;79.59;101322.89;84784;1326;22622;-70
2022/07/18 01:20:49;;;;;;;4.80;3.20;;;;;;;10.73;79.61;101328.46;84664;1328;22600;-69
2022/07/18 01:22:58;;;;;;;5.20;2.60;;;;;;;10.74;79.62;101327.41;84773;1324;22884;-69
2022/07/18 01:25:08;;;;;;;5.50;3.20;;;;;;;10.72;79.89;101330.23;84784;1327;24183;-70
2022/07/18 01:27:19;;;;;;;3.00;2.30;;;;;;;10.72;79.74;101334.08;84783;1326;23037;-70
2022/07/18 01:29:28;;;;;;;3.20;2.30;;;;;;;10.73;79.85;101333.17;84806;1325;25475;-71
2022/07/18 01:31:37;;;;;;;4.70;2.70;;;;;;;10.75;79.79;101330.01;84753;1326;23955;-71
2022/07/18 01:33:46;;;;;;;3.90;3.00;;;;;;;10.76;79.98;101336.77;84800;1327;23884;-71
2022/07/18 01:35:55;;;;;;;6.60;3.10;;;;;;;10.77;80.01;101335.17;84758;1326;24293;-69
2022/07/18 01:38:04;;;;;;;7.70;2.90;;;;;;;10.80;79.97;101335.30;84753;1326;26692;-71
2022/07/18 01:40:16;;;;;;;5.80;3.00;;;;;;;10.79;79.76;101330.60;84780;1328;22599;-72
2022/07/18 01:42:25;;;;;;;5.90;3.40;;;;;;;10.79;79.73;101329.89;84689;1326;24404;-71
2022/07/18 01:44:34;;;;;;;3.90;3.10;;;;;;;10.80;80.08;101331.11;84767;1329;22780;-70
2022/07/18 01:46:43;;;;;;;3.70;2.80;;;;;;;10.80;79.90;101330.58;84765;1324;22590;-71
2022/07/18 01:48:52;;;;;;;5.70;3.40;;;;;;;10.79;79.84;101331.98;84788;1325;23986;-69
2022/07/18 01:51:01;;;;;;;4.70;3.70;;;;;;;10.80;80.09;101330.06;84767;1323;24300;-69
2022/07/18 01:53:11;;;;;;;3.60;3.00;;;;;;;10.82;79.94;101328.42;84693;1328;22587;-70
2022/07/18 01:55:21;;;;;;;5.90;3.20;;;;;;;10.83;80.02;101328.94;84732;1326;22608;-70
2022/07/18 01:57:30;;;;;;;6.70;3.00;;;;;;;10.82;79.89;101330.52;84755;1326;22757;-71
2022/07/18 01:59:39;;;;;;;4.80;3.30;;;;;;;10.81;79.72;101331.59;84814;1326;22826;-70
2022/07/18 02:01:47;;;;;;;6.20;2.80;;;;;;;10.82;79.84;101337.33;84758;1327;22689;-72
2022/07/18 02:03:56;;;;;;;4.30;3.20;;;;;;;10.82;80.04;101344.14;84775;1326;22597;-71
2022/07/18 02:06:05;;;;;;;4.70;3.30;;;;;;;10.81;79.96;101343.11;84754;1326;22719;-72
2022/07/18 02:08:17;;;;;;;5.80;3.90;;;;;;;10.80;79.94;101343.84;84764;1326;22583;-72
2022/07/18 02:10:25;;;;;;;5.80;3.60;;;;;;;10.80;80.03;101341.93;84763;1324;22584;-71
2022/07/18 02:12:34;;;;;;;6.80;3.90;;;;;;;10.80;79.85;101344.02;84707;1327;22707;-72
2022/07/18 02:14:43;;;;;;;4.40;3.30;;;;;;;10.77;79.91;101344.08;84789;1326;22643;-72
2022/07/18 02:16:52;;;;;;;6.10;3.70;;;;;;;10.75;80.15;101344.66;84701;1328;22599;-72
2022/07/18 02:19:01;;;;;;;4.50;4.00;;;;;;;10.75;79.93;101347.27;84779;1326;22601;-70
2022/07/18 02:21:09;;;;;;;6.40;4.00;;;;;;;10.76;80.15;101348.48;84769;1326;22580;-70
2022/07/18 02:23:18;;;;;;;5.90;3.40;;;;;;;10.73;79.94;101347.66;84780;1325;24244;-70
2022/07/18 02:25:27;;;;;;;7.60;4.10;;;;;;;10.71;80.14;101348.42;84766;1327;25486;-70
2022/07/18 02:27:36;;;;;;;8.30;4.50;;;;;;;10.69;80.00;101352.46;84688;1328;22592;-71
2022/07/18 02:29:45;;;;;;;6.10;3.70;;;;;;;10.68;80.27;101350.05;84767;1326;22624;-71
2022/07/18 02:31:54;;;;;;;5.80;5.10;;;;;;;10.68;80.23;101348.48;84751;1326;25268;-69
2022/07/18 02:34:09;;;;;;;10.10;4.00;;;;;;;10.67;80.38;101347.27;84775;1329;24106;-70
2022/07/18 02:36:18;;;;;;;7.80;4.50;;;;;;;10.67;80.43;101345.35;84685;1327;22602;-70
2022/07/18 02:38:26;;;;;;;5.70;4.30;;;;;;;10.65;80.34;101346.29;84780;1326;24275;-70
2022/07/18 02:40:35;;;;;;;7.50;3.80;;;;;;;10.64;80.51;101346.13;84766;1327;25299;-70
2022/07/18 02:42:44;;;;;;;5.30;4.00;;;;;;;10.65;80.66;101343.50;84734;1326;22600;-70
2022/07/18 02:44:53;;;;;;;4.50;3.40;;;;;;;10.63;80.46;101349.80;84789;1323;22587;-72
2022/07/18 02:47:02;;;;;;;5.50;4.70;;;;;;;10.60;80.47;101350.05;84761;1327;25374;-70
2022/07/18 02:49:26;;;;;;;8.90;4.80;;;;;;;10.60;80.49;101349.55;84775;1327;24216;-70
2022/07/18 02:51:35;;;;;;;5.60;3.70;;;;;;;10.60;80.58;101352.52;84741;1326;25306;-70
2022/07/18 02:53:44;;;;;;;8.00;4.40;;;;;;;10.59;80.81;101354.95;84744;1326;22796;-71
2022/07/18 02:55:53;;;;;;;5.90;4.50;;;;;;;10.62;80.84;101355.95;84766;1327;22633;-71
2022/07/18 02:58:02;;;;;;;4.60;4.10;;;;;;;10.64;80.81;101357.48;84758;1326;22655;-71
2022/07/18 03:00:14;;;;;;;7.00;3.70;;;;;;;10.64;80.83;101358.16;84757;1326;22599;-72
2022/07/18 03:02:23;;;;;;;5.90;4.10;;;;;;;10.65;80.67;101356.58;84727;1325;22642;-70
2022/07/18 03:04:32;;;;;;;8.40;3.90;;;;;;;10.64;80.89;101352.58;84703;1327;22696;-72
2022/07/18 03:06:41;;;;;;;6.20;4.00;;;;;;;10.64;80.89;101353.45;84767;1327;22640;-71
2022/07/18 03:08:50;;;;;;;7.00;4.60;;;;;;;10.64;81.02;101356.42;84669;1323;22868;-70
2022/07/18 03:10:58;;;;;;;6.50;4.30;;;;;;;10.66;80.99;101351.32;84759;1323;22806;-70
2022/07/18 03:13:07;;;;;;;5.50;4.30;;;;;;;10.67;80.94;101353.55;84755;1328;22608;-71
2022/07/18 03:15:16;;;;;;;8.50;5.60;;;;;;;10.68;81.00;101352.84;84761;1326;24419;-70
2022/07/18 03:17:25;;;;;;;5.40;4.10;;;;;;;10.69;81.04;101352.29;84749;1326;25612;-70
2022/07/18 03:19:34;;;;;;;7.10;4.10;;;;;;;10.71;80.91;101351.73;84752;1324;22802;-71
2022/07/18 03:21:43;;;;;;;5.00;4.20;;;;;;;10.74;81.23;101350.95;84740;1326;22812;-71
2022/07/18 03:23:53;;;;;;;11.60;4.80;;;;;;;10.79;81.20;101352.77;84775;1327;24235;-71
2022/07/18 03:26:02;;;;;;;5.80;4.40;;;;;;;10.84;81.39;101354.38;84729;1326;25423;-71
2022/07/18 03:28:11;;;;;;;5.30;4.20;;;;;;;10.90;81.45;101356.52;84727;1326;22572;-69
2022/07/18 03:30:20;;;;;;;6.50;4.40;;;;;;;10.96;81.50;101365.47;84627;1329;22817;-70
2022/07/18 03:32:29;;;;;;;5.60;4.50;;;;;;;11.02;81.55;101367.94;84666;1325;24122;-70
2022/07/18 03:34:38;;;;;;;8.20;3.70;;;;;;;11.08;81.52;101370.40;84750;1326;22581;-70
2022/07/18 03:36:47;;;;;;;7.60;4.60;;;;;;;11.17;81.54;101371.41;84765;1325;22793;-69
2022/07/18 03:38:56;;;;;;;7.00;4.20;;;;;;;11.28;81.69;101372.02;84743;1330;24244;-71
2022/07/18 03:41:05;;;;;;;5.30;3.70;;;;;;;11.40;81.87;101369.78;84770;1326;25705;-71
2022/07/18 03:43:15;;;;;;;9.30;4.30;;;;;;;11.55;81.92;101369.25;84734;1326;24055;-72
2022/07/18 03:45:23;;;;;;;8.20;4.50;;;;;;;11.68;81.65;101371.51;84740;1324;24301;-70
2022/07/18 03:47:32;;;;;;;4.30;3.80;;;;;;;11.86;81.51;101368.77;84734;1327;25523;-72
2022/07/18 03:49:41;;;;;;;5.60;3.60;;;;;;;12.46;82.00;101371.07;84516;1328;22951;-70
2022/07/18 03:51:50;;;;;;;4.20;3.70;;;;;;;13.49;83.00;101370.09;84745;1326;22740;-70
2022/07/18 03:53:58;;;;;;;6.70;4.20;;;;;;;14.61;82.69;101366.18;84734;1326;23526;-71
2022/07/18 03:56:08;;;;;;;6.00;3.90;;;;;;;15.67;80.50;101361.16;84746;1327;24259;-70
2022/07/18 03:58:17;;;;;;;3.60;3.10;;;;;;;16.57;77.37;101363.62;84761;1326;22796;-71
2022/07/18 04:00:26;;;;;;;7.40;3.50;;;;;;;17.02;73.64;101364.27;84758;1326;24271;-71
2022/07/18 04:02:35;;;;;;;10.90;3.70;;;;;;;17.35;71.48;101361.09;84745;1328;25581;-71
2022/07/18 04:04:44;;;;;;;4.80;3.40;;;;;;;17.50;68.93;101358.73;84698;1328;22579;-70
2022/07/18 04:06:53;;;;;;;3.90;3.10;;;;;;;17.42;67.62;101363.92;84729;1325;22753;-70
2022/07/18 04:09:01;;;;;;;8.00;3.40;;;;;;;17.28;66.85;101367.41;84776;1323;22719;-72
2022/07/18 04:11:10;;;;;;;4.90;2.80;;;;;;;17.22;66.56;101368.61;84753;1325;25498;-70
2022/07/18 04:13:21;;;;;;;3.90;3.20;;;;;;;17.21;65.67;101368.98;84748;1326;22651;-70
2022/07/18 04:15:30;;;;;;;3.90;3.00;;;;;;;17.18;65.63;101370.41;84695;1330;24921;-70
2022/07/18 04:17:39;;;;;;;3.40;3.00;;;;;;;17.17;65.04;101368.50;84763;1327;22585;-69
2022/07/18 04:19:48;;;;;;;8.00;3.10;;;;;;;17.12;64.97;101369.95;84709;1327;25379;-70
2022/07/18 04:21:57;;;;;;;3.40;2.70;;;;;;;17.10;64.58;101364.45;84744;1327;25936;-70
2022/07/18 04:24:06;;;;;;;4.20;2.60;;;;;;;17.11;64.47;101363.31;84750;1324;22851;-70
2022/07/18 04:26:15;;;;;;;3.10;2.80;;;;;;;17.35;64.73;101360.73;84689;1325;22625;-70
2022/07/18 04:28:24;;;;;;;5.60;2.80;;;;;;;17.89;64.12;101357.05;84764;1323;22608;-70
2022/07/18 04:30:33;;;;;;;5.50;2.90;;;;;;;18.16;63.05;101356.86;84746;1327;22608;-70
2022/07/18 04:32:41;;;;;;;6.30;3.70;;;;;;;18.22;61.73;101353.74;84750;1326;24216;-70
2022/07/18 04:34:51;;;;;;;4.00;3.10;;;;;;;18.13;60.90;101352.60;84785;1328;22605;-70
2022/07/18 04:37:00;;;;;;;3.50;3.00;;;;;;;17.99;60.69;101351.43;84756;1326;22599;-69
2022/07/18 04:39:09;;;;;;;4.80;2.90;;;;;;;17.80;60.62;101353.84;84782;1326;23331;-71
2022/07/18 04:41:22;;;;;;;4.50;2.80;;;;;;;17.66;61.18;101351.02;84755;1326;22601;-70
2022/07/18 04:43:31;;;;;;;4.70;3.20;;;;;;;17.48;61.74;101352.84;84763;1326;25990;-70
2022/07/18 04:45:39;;;;;;;4.60;3.20;;;;;;;17.41;62.17;101354.40;84771;1325;23047;-70
2022/07/18 04:47:48;;;;;;;6.10;3.50;;;;;;;17.40;62.01;101357.48;84753;1326;22808;-70
2022/07/18 04:49:57;;;;;;;3.40;2.90;;;;;;;17.44;62.26;101351.11;84787;1326;22766;-70
2022/07/18 04:52:06;;;;;;;5.70;2.60;;;;;;;17.66;61.85;101346.60;84759;1326;22580;-70
2022/07/18 04:54:15;;;;;;;4.70;3.00;;;;;;;17.92;61.99;101351.82;84798;1320;22579;-70
2022/07/18 04:56:24;;;;;;;5.90;3.30;;;;;;;18.11;61.66;101358.89;84768;1328;26507;-71
2022/07/18 04:58:33;;;;;;;9.50;3.50;;;;;;;18.45;61.44;101353.70;84810;1327;23947;-71
2022/07/18 05:00:41;;;;;;;7.50;3.10;;;;;;;18.99;60.85;101351.73;84779;1326;22604;-72
2022/07/18 05:02:51;;;;;;;3.00;2.80;;;;;;;19.51;59.98;101354.15;84776;1327;22581;-73
2022/07/18 05:04:58;;;;;;;;;;;;;;;20.17;59.47;101353.17;84818;1324;22735;-72
2022/07/18 05:07:07;;;;;;;4.90;2.20;;;;;;;20.98;58.15;101358.61;84699;1326;22638;-72
2022/07/18 05:09:16;;;;;;;5.50;2.50;;;;;;;21.73;55.85;101351.80;84805;1323;22606;-71
2022/07/18 05:11:25;;;;;;;3.00;2.40;;;;;;;22.26;53.74;101352.15;84687;1329;24119;-71
2022/07/18 05:13:34;;;;;;;4.80;2.60;;;;;;;22.66;52.29;101350.17;84738;1320;22577;-71
2022/07/18 05:15:42;;;;;;;2.50;2.30;;;;;;;22.99;51.44;101348.14;84798;1326;22622;-70
2022/07/18 05:17:51;;;;;;;2.20;2.00;;;;;;;23.36;51.21;101345.89;84782;1326;22603;-69
2022/07/18 05:19:59;;;;;;;6.40;3.30;;;;;;;23.72;49.37;101345.84;84721;1327;22595;-69
2022/07/18 05:22:08;;;;;;;8.40;2.80;;;;;;;23.76;48.53;101346.34;84752;1326;24284;-70
2022/07/18 05:24:17;;;;;;;7.00;2.70;;;;;;;24.12;48.22;101346.35;84757;1327;22902;-71
2022/07/18 05:26:26;;;;;;;3.30;2.30;;;;;;;24.52;47.39;101350.33;84714;1329;22557;-70
2022/07/18 05:28:35;;;;;;;2.30;2.00;;;;;;;24.92;46.32;101347.61;84742;1330;22702;-71
2022/07/18 05:30:44;;;;;;;8.20;2.90;;;;;;;25.08;44.96;101348.17;84795;1326;22673;-70
2022/07/18 05:32:53;;;;;;;4.20;2.20;;;;;;;24.93;44.59;101347.27;84755;1324;23945;-70
2022/07/18 05:35:02;;;;;;;2.90;2.30;;;;;;;24.90;45.03;101343.44;84766;1326;22611;-71
2022/07/18 05:37:11;;;;;;;4.10;2.50;;;;;;;25.35;44.88;101343.59;84777;1326;22733;-71
2022/07/18 05:39:19;;;;;;;2.60;2.00;;;;;;;25.64;44.05;101340.23;84798;1326;25271;-70
2022/07/18 05:41:28;;;;;;;2.90;2.20;;;;;;;25.94;43.05;101337.14;84747;1326;22943;-70
2022/07/18 05:43:37;;;;;;;3.50;2.00;;;;;;;26.28;42.43;101338.94;84780;1327;22600;-71
2022/07/18 05:45:46;;;;;;;4.80;2.10;;;;;;;26.76;41.66;101340.34;84748;1327;22727;-71
2022/07/18 05:47:55;;;;;;;3.90;2.20;;;;;;;27.00;40.00;101340.67;84720;1324;23931;-71
2022/07/18 05:50:04;;;;;;;5.10;1.70;;;;;;;26.98;39.56;101339.93;84759;1326;23937;-71
2022/07/18 05:52:11;;;;;;;;;;;;;;;26.65;40.52;101344.40;84782;1326;22561;-70
2022/07/18 05:54:20;;;;;;;3.30;2.10;;;;;;;26.22;40.59;101344.35;84788;1324;22726;-70
2022/07/18 05:56:29;;;;;;;5.20;2.90;;;;;;;25.88;40.96;101345.09;84709;1330;23047;-70
2022/07/18 05:58:38;;;;;;;5.30;1.90;;;;;;;25.51;41.59;101350.81;84782;1326;25485;-70
2022/07/18 06:00:47;;;;;;;2.50;1.90;;;;;;;25.40;41.99;101351.19;84781;1326;22604;-71
2022/07/18 06:02:56;;;;;;;4.50;1.70;;;;;;;25.49;41.79;101348.89;84772;1326;24083;-69
2022/07/18 06:05:06;;;;;;;3.20;2.30;;;;;;;25.52;41.80;101347.55;84790;1326;25433;-70
2022/07/18 06:07:13;;;;;;;;;;;;;;;25.53;41.63;101349.55;84791;1324;22556;-70
2022/07/18 06:09:22;;;;;;;3.60;1.90;;;;;;;25.29;42.02;101352.52;84792;1325;22602;-70
2022/07/18 06:11:31;;;;;;;2.20;1.40;;;;;;;25.11;42.06;101351.86;84774;1327;22598;-71
2022/07/18 06:13:41;;;;;;;4.50;1.80;;;;;;;24.95;42.44;101348.77;84783;1329;22580;-70
2022/07/18 06:15:50;;;;;;;3.50;2.30;;;;;;;24.88;42.82;101346.63;84764;1326;22692;-72
2022/07/18 06:17:59;;;;;;;2.90;2.10;;;;;;;24.71;42.97;101354.35;84709;1329;22626;-70
2022/07/18 06:20:11;;;;;;;5.60;2.00;;;;;;;24.51;43.13;101354.34;84770;1326;22689;-70
2022/07/18 06:22:20;;;;;;;6.20;2.30;;;;;;;24.47;43.90;101355.22;84788;1326;22900;-71
2022/07/18 06:24:29;;;;;;;3.10;2.10;;;;;;;24.70;43.94;101351.86;84731;1327;22624;-71
2022/07/18 06:26:38;;;;;;;4.40;2.50;;;;;;;25.03;43.53;101349.31;84759;1323;24402;-72
2022/07/18 06:28:47;;;;;;;3.10;2.70;;;;;;;25.35;43.63;101347.02;84781;1326;25394;-70
2022/07/18 06:30:56;;;;;;;5.50;2.50;;;;;;;25.70;42.93;101344.23;84756;1327;22583;-70
2022/07/18 06:33:05;;;;;;;;;;;;;;;25.70;41.96;101344.39;84723;1329;24252;-70
2022/07/18 06:35:14;;;;;;;6.20;2.70;;;;;;;25.57;42.24;101346.05;84790;1327;22580;-70
2022/07/18 06:37:23;;;;;;;3.30;2.70;;;;;;;25.60;42.16;101343.47;84794;1325;22964;-70
2022/07/18 06:39:32;;;;;;;3.00;2.50;;;;;;;25.60;42.47;101344.13;84775;1327;22653;-70
2022/07/18 06:41:41;;;;;;;5.50;2.50;;;;;;;25.65;42.40;101344.96;84788;1325;24325;-70
2022/07/18 06:43:50;;;;;;;5.30;2.40;;;;;;;25.69;42.31;101345.66;84816;1326;22586;-70
2022/07/18 06:45:59;;;;;;;3.30;2.40;;;;;;;25.80;42.43;101342.98;84847;1326;22548;-70
2022/07/18 06:48:09;;;;;;;3.20;2.30;;;;;;;26.02;42.16;101341.77;84813;1326;22590;-70
2022/07/18 06:50:20;;;;;;;4.00;1.90;;;;;;;26.12;41.57;101344.14;84718;1329;25261;-70
2022/07/18 06:52:29;;;;;;;4.40;2.20;;;;;;;26.06;41.31;101343.38;84807;1325;25441;-70
2022/07/18 06:54:38;;;;;;;2.00;1.70;;;;;;;25.74;41.23;101344.70;84748;1330;26498;-71
2022/07/18 06:56:47;;;;;;;4.30;1.90;;;;;;;25.61;42.00;101342.81;84816;1327;23933;-71
2022/07/18 06:58:56;;;;;;;3.50;2.40;;;;;;;25.64;41.43;101340.45;84806;1327;22679;-71
2022/07/18 07:01:06;;;;;;;3.10;2.80;;;;;;;25.78;41.62;101341.04;84772;1326;25425;-70
2022/07/18 07:03:18;;;;;;;4.00;2.10;;;;;;;26.13;41.22;101342.02;84769;1329;22602;-70
2022/07/18 07:05:27;;;;;;;4.10;1.90;;;;;;;26.49;41.42;101341.75;84802;1326;24232;-70
2022/07/18 07:07:36;;;;;;;3.50;2.20;;;;;;;26.90;40.66;101336.73;84805;1327;25422;-70
2022/07/18 07:09:44;;;;;;;3.90;2.30;;;;;;;27.39;40.10;101335.23;84800;1326;22601;-70
2022/07/18 07:11:54;;;;;;;4.40;2.20;;;;;;;27.80;39.27;101337.11;84801;1327;24164;-69
2022/07/18 07:14:02;;;;;;;3.10;2.40;;;;;;;28.00;38.09;101334.70;84808;1327;22542;-70
2022/07/18 07:16:11;;;;;;;3.30;2.70;;;;;;;27.86;38.10;101333.40;84803;1322;25253;-70
2022/07/18 07:18:20;;;;;;;3.40;2.70;;;;;;;27.56;38.19;101334.02;84803;1323;22792;-70
2022/07/18 07:20:29;;;;;;;3.20;2.30;;;;;;;27.23;38.34;101332.85;84764;1326;22631;-69
2022/07/18 07:22:45;;;;;;;3.70;2.70;;;;;;;27.10;38.57;101331.41;84783;1328;22700;-69
2022/07/18 07:24:54;;;;;;;2.90;2.60;;;;;;;27.02;39.01;101330.66;84800;1325;24692;-69
2022/07/18 07:27:02;;;;;;;2.60;2.40;;;;;;;26.99;38.91;101331.31;84793;1326;22552;-69
2022/07/18 07:29:11;;;;;;;3.10;2.00;;;;;;;26.99;39.36;101333.92;84791;1326;22556;-69
2022/07/18 07:31:20;;;;;;;3.00;2.40;;;;;;;27.29;39.21;101333.70;84797;1326;22573;-70
2022/07/18 07:33:29;;;;;;;8.70;2.60;;;;;;;27.88;39.50;101328.33;84822;1327;22580;-70
2022/07/18 07:35:36;;;;;;;;;;;;;;;28.52;38.42;101332.02;84805;1326;22559;-70
2022/07/18 07:37:47;;;;;;;6.10;2.30;;;;;;;28.72;37.26;101333.76;84811;1327;22608;-70
2022/07/18 07:39:56;;;;;;;6.80;2.50;;;;;;;29.12;36.95;101328.52;84816;1328;24127;-70
2022/07/18 07:42:05;;;;;;;3.70;2.00;;;;;;;29.71;36.12;101323.48;84802;1326;25298;-70
2022/07/18 07:44:13;;;;;;;3.50;2.10;;;;;;;30.36;35.04;101317.17;84814;1327;22608;-70
2022/07/18 07:46:22;;;;;;;2.40;2.10;;;;;;;30.86;34.64;101317.77;84810;1326;22598;-70
2022/07/18 07:48:31;;;;;;;2.30;1.60;;;;;;;31.30;34.23;101314.75;84811;1328;22582;-70
2022/07/18 07:50:40;;;;;;;2.80;1.80;;;;;;;31.70;32.83;101317.95;84736;1322;22616;-70
2022/07/18 07:52:49;;;;;;;3.00;1.90;;;;;;;32.14;32.58;101316.02;84791;1326;24059;-70
2022/07/18 07:54:57;;;;;;;4.40;1.70;;;;;;;31.99;31.67;101319.42;84827;1329;22586;-70
2022/07/18 07:57:06;;;;;;;2.20;1.50;;;;;;;31.46;31.87;101317.98;84802;1327;25450;-70
2022/07/18 07:59:15;;;;;;;4.00;2.00;;;;;;;30.98;32.59;101318.61;84836;1328;22822;-70
2022/07/18 08:01:24;;;;;;;3.70;2.20;;;;;;;30.74;33.11;101316.68;84799;1329;23933;-70
2022/07/18 08:03:33;;;;;;;2.10;1.50;;;;;;;30.92;33.48;101315.15;84817;1326;23968;-70
2022/07/18 08:05:49;;;;;;;2.50;1.30;;;;;;;31.49;32.65;101315.95;84751;1321;22738;-70
2022/07/18 08:07:57;;;;;;;3.50;1.80;;;;;;;32.19;32.04;101316.33;84810;1327;26637;-70
2022/07/18 08:10:07;;;;;;;4.00;1.60;;;;;;;32.84;31.80;101317.85;84811;1326;22841;-70
2022/07/18 08:12:16;;;;;;;4.60;1.40;;;;;;;33.04;30.86;101323.45;84800;1326;22612;-70
2022/07/18 08:14:25;;;;;;;2.70;1.20;;;;;;;33.52;30.20;101322.58;84799;1326;22681;-70
2022/07/18 08:16:35;;;;;;;;;;;;;;;33.80;29.06;101320.78;84816;1327;22567;-70
2022/07/18 08:18:43;;;;;;;2.30;1.50;;;;;;;33.70;28.21;101320.44;84810;1327;22590;-70
2022/07/18 08:20:52;;;;;;;2.40;1.70;;;;;;;33.37;28.25;101325.39;84656;1330;22605;-70
2022/07/18 08:23:03;;;;;;;4.60;2.00;;;;;;;33.03;29.16;101325.73;84777;1327;22577;-70
2022/07/18 08:25:13;;;;;;;2.10;1.20;;;;;;;32.93;30.00;101325.67;84840;1327;22649;-71
2022/07/18 08:27:21;;;;;;;2.60;1.70;;;;;;;33.04;29.40;101325.66;84783;1326;22582;-72
2022/07/18 08:29:30;;;;;;;7.20;1.70;;;;;;;32.84;29.51;101321.45;84807;1327;23929;-72
2022/07/18 08:31:39;;;;;;;3.30;2.50;;;;;;;32.79;29.67;101321.34;84777;1318;22886;-71
2022/07/18 08:33:48;;;;;;;3.60;1.60;;;;;;;32.88;29.53;101321.70;84824;1327;22603;-72
2022/07/18 08:35:58;;;;;;;8.10;2.00;;;;;;;33.16;29.85;101322.05;84779;1329;22623;-73
2022/07/18 08:38:05;;;;;;;;;;;;;;;33.74;29.54;101316.09;84765;1324;22819;-72
2022/07/18 08:40:14;;;;;;;3.50;1.20;;;;;;;34.24;29.35;101319.55;84848;1325;26478;-72
2022/07/18 08:42:22;;;;;;;;;;;;;;;34.78;28.21;101317.16;84805;1326;22583;-72
2022/07/18 08:44:31;;;;;;;2.00;1.50;;;;;;;35.29;27.97;101317.23;84831;1325;25413;-72
2022/07/18 08:46:40;;;;;;;4.00;1.50;;;;;;;35.85;27.53;101311.70;84767;1327;22733;-73
2022/07/18 08:48:48;;;;;;;;;;;;;;;36.03;26.69;101311.75;84841;1327;22582;-72
2022/07/18 08:50:57;;;;;;;2.60;1.20;;;;;;;35.93;26.48;101308.52;84822;1327;22765;-71
2022/07/18 08:53:05;;;;;;;6.90;1.90;;;;;;;36.30;25.77;101311.07;84793;1325;22611;-72
2022/07/18 08:55:15;;;;;;;2.20;1.40;;;;;;;36.57;25.76;101311.38;84822;1327;25298;-73
2022/07/18 08:57:24;;;;;;;10.20;3.60;;;;;;;36.90;25.38;101303.02;84724;1329;22614;-73
2022/07/18 08:59:33;;;;;;;3.20;1.50;;;;;;;37.39;25.26;101300.45;84804;1326;22834;-73
2022/07/18 09:01:42;;;;;;;3.20;1.30;;;;;;;37.78;24.50;101304.23;84786;1327;22586;-72
2022/07/18 09:06:16;;;;;;;2.20;1.40;;;;;;;38.09;23.46;101295.73;84791;1326;22586;-72
2022/07/18 09:08:25;;;;;;;3.70;1.70;;;;;;;37.67;23.36;101296.15;84810;1327;22604;-72
2022/07/18 09:10:43;;;;;;;2.90;1.60;;;;;;;36.71;23.47;101304.14;84789;1322;22941;-71
2022/07/18 09:13:03;;;;;;;1.50;1.10;;;;;;;35.58;24.76;101302.85;84798;1325;23952;-71
2022/07/18 09:15:13;;;;;;;4.30;2.00;;;;;;;35.34;25.59;101303.60;84832;1326;25601;-72
2022/07/18 09:17:23;;;;;;;1.70;1.20;;;;;;;35.36;26.16;101304.28;84787;1325;23982;-72
2022/07/18 09:19:32;;;;;;;2.40;1.40;;;;;;;35.48;25.66;101302.30;84824;1325;22673;-72
2022/07/18 09:21:41;;;;;;;3.20;1.40;;;;;;;35.45;26.33;101300.23;84785;1327;24227;-71
2022/07/18 09:23:52;;;;;;;3.40;1.50;;;;;;;35.48;26.20;101296.80;84684;1325;22581;-71
2022/07/18 09:26:01;;;;;;;3.10;1.20;;;;;;;35.37;26.61;101301.02;84802;1326;23907;-70
2022/07/18 09:28:14;;;;;;;3.50;1.80;;;;;;;35.28;26.37;101303.21;84780;1327;22685;-71
2022/07/18 09:30:28;;;;;;;4.60;1.50;;;;;;;35.19;26.63;101297.20;84795;1326;22822;-72
2022/07/18 09:32:37;;;;;;;3.40;1.90;;;;;;;34.98;26.51;101300.55;84821;1323;23962;-71
2022/07/18 09:34:46;;;;;;;3.40;1.50;;;;;;;34.79;26.44;101294.95;84824;1329;22995;-71
2022/07/18 09:36:58;;;;;;;;;;;;;;;34.60;26.19;101299.84;84810;1329;22539;-71
2022/07/18 09:39:23;;;;;;;3.00;1.40;;;;;;;34.34;27.01;101299.31;84831;1322;22799;-71
2022/07/18 09:41:33;;;;;;;3.50;1.60;;;;;;;33.99;27.34;101299.63;84762;1327;26053;-71
2022/07/18 09:43:42;;;;;;;3.00;1.60;;;;;;;33.69;27.62;101295.19;84754;1327;22638;-71
2022/07/18 09:45:53;;;;;;;3.80;1.90;;;;;;;33.25;27.84;101293.48;84806;1327;22596;-70
2022/07/18 09:48:03;;;;;;;2.90;1.50;;;;;;;32.74;28.16;101294.23;84802;1327;22607;-71
2022/07/18 09:50:19;;;;;;;6.10;1.60;;;;;;;32.38;28.93;101298.43;84691;1330;24265;-71
2022/07/18 09:52:28;;;;;;;2.70;1.40;;;;;;;32.32;29.40;101300.20;84797;1327;25251;-70
2022/07/18 09:54:45;;;;;;;7.30;2.20;;;;;;;32.19;29.45;101298.48;84808;1327;25442;-70
2022/07/18 09:56:55;;;;;;;2.40;1.50;;;;;;;32.07;29.77;101299.70;84803;1327;22711;-70
2022/07/18 09:59:04;;;;;;;1.70;1.10;;;;;;;31.87;29.31;101296.72;84817;1327;22649;-70
2022/07/18 10:01:14;;;;;;;2.80;1.40;;;;;;;31.45;29.88;101293.34;84783;1329;22577;-70
2022/07/18 10:03:23;;;;;;;5.10;2.10;;;;;;;31.11;30.40;101295.15;84767;1325;22570;-70
2022/07/18 10:05:35;;;;;;;4.10;1.80;;;;;;;30.96;30.74;101292.34;84782;1327;26870;-70
2022/07/18 10:07:44;;;;;;;4.00;2.00;;;;;;;30.70;31.10;101298.10;84782;1326;22799;-71